createdAt,value
2024-05-09T00:02:23.303Z,2.90
2024-05-09T00:07:22.786Z,2.80
2024-05-09T00:09:52.291Z,2.67
2024-05-09T00:12:22.109Z,3.25
2024-05-09T00:14:51.869Z,2.50
2024-05-09T00:17:24.236Z,2.88
2024-05-09T00:19:54.136Z,2.38
2024-05-09T00:22:23.761Z,2.67
2024-05-09T00:24:53.271Z,2.55
2024-05-09T00:27:23.446Z,2.85
2024-05-09T00:29:53.238Z,2.97
2024-05-09T00:32:25.676Z,2.50
2024-05-09T00:34:55.311Z,2.47
2024-05-09T00:37:25.013Z,2.65
2024-05-09T00:39:54.678Z,2.20
2024-05-09T00:42:24.286Z,2.50
2024-05-09T00:44:53.866Z,2.25
2024-05-09T00:47:26.768Z,2.40
2024-05-09T00:49:56.681Z,2.42
2024-05-09T00:52:26.614Z,2.70
2024-05-09T00:54:56.605Z,2.67
2024-05-09T00:57:26.505Z,3.00
2024-05-09T00:59:56.412Z,3.10
2024-05-09T01:02:29.023Z,3.33
2024-05-09T01:04:58.971Z,2.10
2024-05-09T01:07:28.668Z,3.33
2024-05-09T01:09:58.356Z,2.60
2024-05-09T01:12:28.112Z,2.75
2024-05-09T01:14:57.756Z,3.05
2024-05-09T01:17:30.259Z,2.47
2024-05-09T01:20:00.290Z,2.88
2024-05-09T01:22:30.419Z,3.25
2024-05-09T01:25:02.844Z,3.03
2024-05-09T01:27:33.423Z,3.03
2024-05-09T01:30:04.093Z,3.20
2024-05-09T01:32:35.176Z,2.90
2024-05-09T01:35:04.894Z,3.72
2024-05-09T01:37:34.425Z,3.58
2024-05-09T01:40:12.038Z,2.40
2024-05-09T01:42:44.494Z,2.88
2024-05-09T01:45:14.901Z,3.70
2024-05-09T01:47:44.898Z,3.35
2024-05-09T01:52:45.964Z,2.63
2024-05-09T01:55:18.436Z,3.50
2024-05-09T02:00:26.305Z,2.97
2024-05-09T02:03:04.396Z,4.00
2024-05-09T02:05:34.489Z,3.15
2024-05-09T02:08:04.102Z,2.55
2024-05-09T02:10:36.359Z,3.30
2024-05-09T02:13:05.882Z,3.80
2024-05-09T02:15:35.412Z,3.65
2024-05-09T02:18:05.216Z,3.78
2024-05-09T02:20:36.756Z,3.45
2024-05-09T02:23:07.509Z,2.97
2024-05-09T02:25:40.313Z,3.47
2024-05-09T02:28:09.883Z,3.78
2024-05-09T02:30:41.655Z,3.38
2024-05-09T02:33:11.821Z,3.53
2024-05-09T02:35:44.289Z,3.15
2024-05-09T02:38:12.084Z,2.70
2024-05-09T02:40:44.758Z,2.95
2024-05-09T02:45:42.315Z,2.53
2024-05-09T02:48:10.326Z,3.08
2024-05-09T02:50:40.653Z,3.13
2024-05-09T02:53:09.297Z,2.85
2024-05-09T02:55:39.849Z,2.72
2024-05-09T02:58:10.298Z,2.53
2024-05-09T03:00:42.182Z,3.00
2024-05-09T03:03:12.759Z,2.63
2024-05-09T03:05:47.694Z,2.97
2024-05-09T03:08:14.933Z,2.13
2024-05-09T03:10:44.925Z,2.75
2024-05-09T03:13:15.787Z,2.80
2024-05-09T03:15:45.962Z,2.90
2024-05-09T03:18:13.550Z,2.40
2024-05-09T03:20:43.979Z,2.67
2024-05-09T03:23:11.266Z,2.30
2024-05-09T03:25:41.054Z,2.55
2024-05-09T03:28:07.818Z,2.45
2024-05-09T03:30:42.625Z,2.20
2024-05-09T03:33:10.989Z,1.90
2024-05-09T03:35:40.747Z,3.20
2024-05-09T03:38:10.511Z,3.50
2024-05-09T03:40:44.073Z,2.92
2024-05-09T03:43:13.788Z,3.55
2024-05-09T03:45:46.112Z,3.53
2024-05-09T03:50:43.028Z,3.33
2024-05-09T03:53:10.683Z,3.00
2024-05-09T03:55:40.343Z,3.78
2024-05-09T03:58:08.043Z,2.80
2024-05-09T04:00:39.737Z,3.05
2024-05-09T04:03:12.128Z,2.65
2024-05-09T04:05:43.906Z,3.05
2024-05-09T04:08:11.717Z,2.72
2024-05-09T04:10:41.457Z,3.08
2024-05-09T04:13:08.230Z,2.50
2024-05-09T04:15:38.261Z,2.75
2024-05-09T04:18:05.699Z,2.42
2024-05-09T04:20:40.537Z,3.22
2024-05-09T04:23:13.741Z,3.22
2024-05-09T04:25:45.052Z,3.20
2024-05-09T04:28:12.754Z,3.53
2024-05-09T04:30:42.928Z,2.55
2024-05-09T04:33:12.472Z,4.28
2024-05-09T04:35:46.342Z,3.05
2024-05-09T04:40:43.823Z,2.53
2024-05-09T04:43:14.293Z,3.08
2024-05-09T04:45:44.081Z,3.40
2024-05-09T04:48:11.561Z,3.15
2024-05-09T04:50:41.653Z,3.45
2024-05-09T04:53:15.047Z,3.28
2024-05-09T04:55:45.131Z,3.42
2024-05-09T04:58:12.387Z,3.00
2024-05-09T05:00:42.314Z,3.03
2024-05-09T05:03:12.915Z,3.47
2024-05-09T05:05:46.058Z,3.22
2024-05-09T05:08:17.569Z,3.50
2024-05-09T05:10:49.370Z,2.83
2024-05-09T05:13:18.322Z,2.75
2024-05-09T05:15:48.947Z,2.83
2024-05-09T05:18:16.137Z,2.20
2024-05-09T05:20:46.324Z,2.55
2024-05-09T05:23:16.934Z,1.35
2024-05-09T05:25:47.877Z,2.60
2024-05-09T05:28:15.634Z,1.67
2024-05-09T05:30:45.653Z,2.00
2024-05-09T05:33:13.682Z,3.55
2024-05-09T05:35:43.648Z,3.67
2024-05-09T05:38:11.147Z,3.33
2024-05-09T05:40:43.748Z,3.50
2024-05-09T05:43:16.092Z,3.90
2024-05-09T05:45:45.591Z,3.33
2024-05-09T05:48:13.240Z,2.35
2024-05-09T05:50:43.252Z,2.55
2024-05-09T05:53:11.606Z,2.85
2024-05-09T05:55:45.441Z,4.82
2024-05-09T05:58:12.706Z,5.55
2024-05-09T06:00:43.252Z,2.95
2024-05-09T06:03:12.304Z,4.57
2024-05-09T06:05:43.469Z,5.03
2024-05-09T06:08:11.044Z,3.58
2024-05-09T06:10:41.648Z,4.32
2024-05-09T06:13:12.375Z,3.58
2024-05-09T06:15:43.245Z,3.17
2024-05-09T06:18:11.985Z,5.70
2024-05-09T06:20:43.807Z,4.53
2024-05-09T06:23:11.899Z,3.05
2024-05-09T06:25:42.428Z,5.13
2024-05-09T06:28:12.429Z,1.20
2024-05-09T06:30:43.207Z,4.43
2024-05-09T06:33:13.132Z,3.42
2024-05-09T06:35:45.028Z,1.73
2024-05-09T06:38:12.604Z,2.03
2024-05-09T06:40:44.173Z,2.63
2024-05-09T06:43:16.912Z,4.75
2024-05-09T06:45:49.133Z,3.38
2024-05-09T06:48:18.083Z,3.45
2024-05-09T06:50:48.144Z,1.70
2024-05-09T06:53:15.918Z,3.78
2024-05-09T06:55:47.864Z,3.58
2024-05-09T06:58:17.678Z,3.30
2024-05-09T07:00:47.344Z,3.55
2024-05-09T07:03:17.815Z,4.32
2024-05-09T07:05:49.821Z,4.30
2024-05-09T07:08:17.333Z,4.72
2024-05-09T07:10:47.530Z,4.18
2024-05-09T07:13:17.925Z,3.65
2024-05-09T07:15:47.678Z,3.00
2024-05-09T07:18:16.690Z,1.25
2024-05-09T07:20:49.298Z,3.33
2024-05-09T07:23:17.542Z,3.75
2024-05-09T07:25:47.611Z,2.47
2024-05-09T07:28:18.664Z,3.47
2024-05-09T07:30:48.724Z,3.60
2024-05-09T07:33:16.222Z,2.40
2024-05-09T07:35:45.832Z,2.20
2024-05-09T07:38:13.125Z,1.45
2024-05-09T07:40:43.264Z,3.88
2024-05-09T07:43:11.619Z,4.70
2024-05-09T07:45:51.495Z,1.73
2024-05-09T07:52:38.272Z,2.88
2024-05-09T07:53:45.825Z,4.55
2024-05-09T07:56:21.625Z,3.95
2024-05-09T07:58:50.408Z,3.60
2024-05-09T08:01:24.632Z,4.32
2024-05-09T08:03:51.844Z,4.25
2024-05-09T08:06:21.727Z,2.25
2024-05-09T08:08:48.833Z,1.30
2024-05-09T08:11:19.679Z,2.10
2024-05-09T08:13:46.848Z,1.00
2024-05-09T08:16:17.076Z,0.82
2024-05-09T08:18:46.699Z,1.85
2024-05-09T08:21:16.430Z,2.30
2024-05-09T08:23:43.235Z,0.55
2024-05-09T08:26:12.949Z,1.90
2024-05-09T08:28:40.038Z,1.20
2024-05-09T08:31:10.440Z,0.55
2024-05-09T08:33:43.588Z,3.25
2024-05-09T08:36:16.776Z,2.97
2024-05-09T08:38:43.870Z,3.60
2024-05-09T08:41:16.014Z,3.85
2024-05-09T08:43:43.495Z,0.40
2024-05-09T08:46:14.503Z,0.77
2024-05-09T08:48:44.302Z,0.77
2024-05-09T08:51:16.815Z,0.45
2024-05-09T08:53:43.779Z,0.95
2024-05-09T08:56:14.037Z,0.68
2024-05-09T08:58:41.957Z,2.05
2024-05-09T09:01:12.164Z,1.05
2024-05-09T09:03:40.471Z,1.50
2024-05-09T09:06:11.880Z,1.10
2024-05-09T09:08:41.561Z,0.88
2024-05-09T09:11:11.313Z,1.33
2024-05-09T09:13:38.304Z,2.20
2024-05-09T09:16:08.546Z,1.10
2024-05-09T09:18:35.878Z,3.17
2024-05-09T09:21:05.686Z,3.40
2024-05-09T09:23:33.498Z,1.27
2024-05-09T09:26:05.797Z,2.22
2024-05-09T09:31:03.210Z,4.40
2024-05-09T09:33:36.156Z,3.40
2024-05-09T09:36:04.983Z,2.33
2024-05-09T09:38:38.962Z,1.83
2024-05-09T09:41:08.763Z,1.52
2024-05-09T09:43:39.098Z,2.05
2024-05-09T09:46:08.778Z,2.55
2024-05-09T09:48:40.949Z,2.00
2024-05-09T09:51:08.171Z,3.15
2024-05-09T09:53:38.380Z,3.50
2024-05-09T09:56:07.483Z,0.40
2024-05-09T09:58:41.303Z,1.35
2024-05-09T10:01:08.555Z,2.50
2024-05-09T10:03:38.469Z,1.02
2024-05-09T10:06:06.934Z,3.78
2024-05-09T10:08:37.405Z,0.93
2024-05-09T10:11:04.830Z,0.98
2024-05-09T10:13:40.414Z,1.58
2024-05-09T10:16:09.117Z,2.38
2024-05-09T10:18:39.316Z,0.22
2024-05-09T10:21:19.510Z,0.40
2024-05-09T10:23:59.189Z,2.05
2024-05-09T10:26:33.295Z,0.63
2024-05-09T10:29:13.039Z,2.00
2024-05-09T10:31:41.679Z,0.70
2024-05-09T10:34:22.436Z,3.80
2024-05-09T10:36:54.009Z,0.65
2024-05-09T10:39:24.312Z,0.82
2024-05-09T10:41:51.451Z,2.40
2024-05-09T10:44:24.198Z,1.25
2024-05-09T10:46:53.790Z,1.33
2024-05-09T10:49:23.652Z,0.00
2024-05-09T10:51:51.991Z,0.77
2024-05-09T10:54:21.976Z,0.60
2024-05-09T10:56:55.883Z,1.85
2024-05-09T10:59:28.427Z,0.38
2024-05-09T11:01:55.594Z,2.28
2024-05-09T11:04:25.512Z,1.75
2024-05-09T11:06:52.794Z,3.10
2024-05-09T11:09:25.804Z,1.05
2024-05-09T11:11:52.985Z,2.17
2024-05-09T11:14:22.731Z,2.25
2024-05-09T11:17:01.062Z,0.82
2024-05-09T11:19:32.877Z,1.52
2024-05-09T11:22:01.761Z,1.52
2024-05-09T11:24:31.697Z,3.50
2024-05-09T11:26:59.383Z,1.38
2024-05-09T11:29:39.095Z,2.72
2024-05-09T11:32:11.712Z,1.20
2024-05-09T11:34:42.220Z,2.20
2024-05-09T11:37:09.346Z,2.67
2024-05-09T11:39:39.265Z,2.13
2024-05-09T11:42:06.319Z,0.65
2024-05-09T11:44:36.172Z,2.65
2024-05-09T11:47:04.626Z,0.30
2024-05-09T11:49:37.375Z,2.22
2024-05-09T11:52:04.926Z,1.83
2024-05-09T11:54:34.686Z,3.90
2024-05-09T11:57:01.813Z,2.42
2024-05-09T11:59:31.285Z,3.50
2024-05-09T12:01:58.531Z,1.63
2024-05-09T12:04:28.554Z,3.33
2024-05-09T12:06:58.264Z,2.38
2024-05-09T12:09:28.202Z,3.20
2024-05-09T12:11:55.212Z,1.05
2024-05-09T12:14:24.894Z,2.58
2024-05-09T12:16:51.985Z,0.22
2024-05-09T12:19:21.929Z,1.70
2024-05-09T12:21:49.023Z,2.10
2024-05-09T12:24:21.834Z,3.72
2024-05-09T12:26:48.983Z,2.70
2024-05-09T12:29:18.678Z,1.88
2024-05-09T12:31:45.862Z,1.25
2024-05-09T12:34:16.167Z,1.70
2024-05-09T12:36:43.574Z,0.60
2024-05-09T12:39:13.446Z,2.25
2024-05-09T12:41:43.257Z,1.23
2024-05-09T12:44:12.830Z,1.27
2024-05-09T12:46:39.739Z,0.55
2024-05-09T12:49:09.490Z,2.00
2024-05-09T12:51:36.835Z,2.47
2024-05-09T12:54:06.453Z,2.85
2024-05-09T12:56:33.651Z,0.75
2024-05-09T12:59:05.806Z,0.63
2024-05-09T13:01:33.107Z,1.60
2024-05-09T13:04:03.159Z,2.05
2024-05-09T13:06:31.103Z,0.60
2024-05-09T13:09:00.942Z,1.33
2024-05-09T13:11:28.154Z,2.08
2024-05-09T13:13:57.630Z,1.70
2024-05-09T13:16:27.140Z,1.58
2024-05-09T13:18:56.774Z,1.20
2024-05-09T13:21:23.999Z,1.52
2024-05-09T13:23:53.654Z,2.25
2024-05-09T13:26:20.673Z,2.20
2024-05-09T13:28:50.556Z,1.90
2024-05-09T13:31:17.548Z,0.82
2024-05-09T13:33:50.035Z,0.22
2024-05-09T13:38:46.558Z,0.82
2024-05-09T13:41:13.681Z,1.10
2024-05-09T13:43:43.510Z,1.27
2024-05-09T13:46:13.332Z,1.48
2024-05-09T13:48:40.636Z,1.80
2024-05-09T13:51:13.216Z,0.65
2024-05-09T13:53:40.341Z,0.93
2024-05-09T13:56:11.966Z,1.63
2024-05-09T13:58:39.121Z,0.90
2024-05-09T14:01:08.820Z,1.33
2024-05-09T14:03:37.203Z,1.50
2024-05-09T14:06:10.548Z,1.13
2024-05-09T14:08:42.211Z,0.90
2024-05-09T14:11:11.809Z,2.65
2024-05-09T14:13:39.000Z,0.85
2024-05-09T14:16:09.630Z,0.98
2024-05-09T14:18:36.858Z,1.23
2024-05-09T14:21:06.657Z,1.20
2024-05-09T14:23:33.770Z,0.57
2024-05-09T14:26:06.944Z,0.77
2024-05-09T14:28:34.129Z,0.85
2024-05-09T14:31:04.074Z,0.63
2024-05-09T14:33:31.441Z,1.27
2024-05-09T14:36:01.460Z,0.20
2024-05-09T14:38:28.617Z,0.73
2024-05-09T14:40:58.294Z,1.67
2024-05-09T14:43:28.251Z,0.90
2024-05-09T14:45:59.140Z,0.50
2024-05-09T14:48:26.929Z,0.70
2024-05-09T14:50:56.873Z,0.88
2024-05-09T14:53:24.007Z,1.08
2024-05-09T14:55:55.298Z,1.25
2024-05-09T14:58:23.303Z,0.93
2024-05-09T15:00:55.551Z,0.88
2024-05-09T15:03:22.982Z,0.73
2024-05-09T15:05:53.085Z,0.30
2024-05-09T15:08:20.579Z,0.77
2024-05-09T15:10:51.249Z,0.75
2024-05-09T15:13:18.778Z,0.75
2024-05-09T15:15:48.779Z,0.70
2024-05-09T15:18:19.156Z,0.75
2024-05-09T15:20:49.034Z,0.88
2024-05-09T15:23:16.330Z,0.77
2024-05-09T15:25:47.048Z,1.23
2024-05-09T15:28:14.362Z,0.80
2024-05-09T15:30:46.489Z,0.00
2024-05-09T15:33:14.611Z,0.98
2024-05-09T15:35:47.345Z,0.88
2024-05-09T15:38:14.455Z,1.20
2024-05-09T15:40:44.040Z,0.20
2024-05-09T15:43:11.744Z,0.43
2024-05-09T15:45:41.898Z,1.17
2024-05-09T15:48:09.890Z,0.77
2024-05-09T15:50:42.044Z,1.05
2024-05-09T15:53:13.433Z,1.17
2024-05-09T15:55:43.761Z,0.93
2024-05-09T15:58:11.101Z,0.88
2024-05-09T16:00:43.410Z,0.90
2024-05-09T16:03:14.164Z,0.85
2024-05-09T16:05:46.523Z,0.88
2024-05-09T16:08:17.289Z,0.88
2024-05-09T16:10:48.194Z,0.70
2024-05-09T16:13:15.768Z,0.73
2024-05-09T16:15:46.519Z,0.65
2024-05-09T16:18:13.882Z,1.08
2024-05-09T16:20:45.515Z,0.80
2024-05-09T16:23:17.456Z,0.68
2024-05-09T16:25:48.086Z,1.02
2024-05-09T16:28:15.536Z,0.73
2024-05-09T16:30:45.393Z,0.10
2024-05-09T16:33:12.826Z,0.68
2024-05-09T16:35:43.200Z,0.77
2024-05-09T16:38:10.072Z,0.93
2024-05-09T16:40:42.384Z,0.80
2024-05-09T16:43:10.757Z,0.73
2024-05-09T16:45:41.855Z,0.55
2024-05-09T16:48:09.514Z,0.75
2024-05-09T16:50:39.489Z,0.80
2024-05-09T16:53:07.332Z,1.02
2024-05-09T16:55:37.283Z,0.90
2024-05-09T16:58:08.452Z,1.10
2024-05-09T17:00:42.331Z,1.30
2024-05-09T17:03:12.743Z,1.45
2024-05-09T17:05:43.610Z,1.85
2024-05-09T17:08:13.562Z,0.65
2024-05-09T17:10:40.662Z,1.10
2024-05-09T17:13:13.133Z,0.60
2024-05-09T17:18:12.819Z,0.77
2024-05-09T17:20:39.620Z,0.93
2024-05-09T17:23:14.847Z,0.85
2024-05-09T17:25:42.169Z,0.95
2024-05-09T17:28:14.794Z,0.73
2024-05-09T17:30:42.894Z,0.52
2024-05-09T17:33:15.320Z,0.75
2024-05-09T17:35:42.401Z,0.63
2024-05-09T17:38:12.186Z,0.63
2024-05-09T17:40:39.904Z,0.60
2024-05-09T17:43:10.755Z,1.20
2024-05-09T17:45:42.105Z,0.50
2024-05-09T17:48:13.207Z,0.82
2024-05-09T17:50:41.757Z,0.30
2024-05-09T17:53:12.585Z,0.88
2024-05-09T17:55:39.646Z,0.50
2024-05-09T17:58:09.873Z,0.77
2024-05-09T18:00:40.486Z,1.08
2024-05-09T18:03:14.884Z,0.70
2024-05-09T18:05:43.427Z,0.63
2024-05-09T18:08:14.320Z,0.70
2024-05-09T18:10:41.856Z,0.85
2024-05-09T18:13:12.470Z,0.80
2024-05-09T18:15:40.455Z,0.70
2024-05-09T18:18:10.831Z,0.68
2024-05-09T18:20:44.658Z,0.63
2024-05-09T18:23:17.185Z,0.70
2024-05-09T18:25:45.688Z,1.10
2024-05-09T18:28:16.458Z,1.15
2024-05-09T18:30:44.212Z,1.17
2024-05-09T18:33:14.302Z,0.77
2024-05-09T18:35:44.448Z,0.93
2024-05-09T18:38:14.315Z,0.47
2024-05-09T18:40:43.764Z,0.77
2024-05-09T18:43:16.028Z,0.28
2024-05-09T18:45:43.799Z,0.88
2024-05-09T18:48:14.056Z,0.43
2024-05-09T18:50:44.055Z,0.73
2024-05-09T18:53:14.079Z,0.35
2024-05-09T18:55:41.110Z,1.02
2024-05-09T18:58:10.925Z,0.75
2024-05-09T19:00:40.382Z,0.73
2024-05-09T19:03:14.242Z,1.05
2024-05-09T19:05:46.129Z,1.00
2024-05-09T19:08:16.306Z,0.80
2024-05-09T19:10:45.354Z,1.50
2024-05-09T19:13:15.608Z,1.00
2024-05-09T19:15:43.677Z,1.27
2024-05-09T19:18:14.895Z,1.20
2024-05-09T19:20:45.051Z,1.25
2024-05-09T19:23:14.874Z,1.55
2024-05-09T19:25:42.716Z,1.60
2024-05-09T19:28:12.688Z,1.83
2024-05-09T19:30:42.120Z,1.33
2024-05-09T19:33:13.631Z,1.35
2024-05-09T19:35:41.612Z,1.40
2024-05-09T19:38:14.073Z,1.48
2024-05-09T19:40:41.727Z,1.42
2024-05-09T19:43:11.767Z,1.50
2024-05-09T19:45:39.218Z,1.40
2024-05-09T19:48:09.360Z,1.92
2024-05-09T19:50:42.218Z,1.48
2024-05-09T19:53:16.868Z,1.30
2024-05-09T19:55:43.881Z,1.85
2024-05-09T19:58:13.945Z,1.45
2024-05-09T20:00:43.153Z,1.40
2024-05-09T20:03:15.101Z,1.60
2024-05-09T20:05:44.273Z,1.40
2024-05-09T20:08:16.884Z,1.30
2024-05-09T20:10:44.228Z,1.48
2024-05-09T20:13:14.258Z,1.40
2024-05-09T20:15:41.328Z,1.55
2024-05-09T20:18:11.427Z,1.33
2024-05-09T20:20:41.975Z,1.60
2024-05-09T20:23:16.615Z,1.60
2024-05-09T20:25:43.740Z,1.52
2024-05-09T20:28:13.709Z,1.27
2024-05-09T20:30:41.122Z,1.20
2024-05-09T20:33:12.428Z,1.20
2024-05-09T20:35:40.191Z,1.40
2024-05-09T20:38:10.034Z,1.27
2024-05-09T20:40:40.199Z,1.80
2024-05-09T20:43:10.931Z,1.85
2024-05-09T20:45:39.042Z,1.80
2024-05-09T20:48:10.268Z,1.35
2024-05-09T20:50:40.929Z,1.65
2024-05-09T20:53:14.617Z,1.88
2024-05-09T20:55:47.613Z,1.50
2024-05-09T20:58:14.736Z,1.85
2024-05-09T21:00:45.928Z,2.15
2024-05-09T21:03:17.125Z,2.20
2024-05-09T21:05:48.649Z,1.80
2024-05-09T21:08:15.889Z,2.70
2024-05-09T21:10:48.597Z,2.30
2024-05-09T21:13:17.842Z,2.03
2024-05-09T21:15:47.862Z,1.55
2024-05-09T21:18:14.825Z,2.20
2024-05-09T21:20:44.711Z,1.92
2024-05-09T21:23:11.808Z,2.15
2024-05-09T21:25:41.807Z,2.35
2024-05-09T21:28:11.599Z,2.25
2024-05-09T21:30:42.958Z,1.98
2024-05-09T21:33:12.690Z,2.03
2024-05-09T21:35:44.988Z,2.13
2024-05-09T21:38:13.920Z,1.80
2024-05-09T21:40:44.609Z,2.30
2024-05-09T21:43:14.757Z,2.40
2024-05-09T21:45:44.888Z,2.20
2024-05-09T21:48:13.095Z,2.70
2024-05-09T21:50:43.164Z,2.80
2024-05-09T21:53:10.805Z,2.50
2024-05-09T21:55:40.762Z,2.13
2024-05-09T21:58:08.020Z,2.40
2024-05-09T22:00:42.985Z,2.88
2024-05-09T22:03:11.614Z,2.33
2024-05-09T22:05:44.288Z,2.40
2024-05-09T22:08:11.732Z,2.03
2024-05-09T22:10:41.499Z,2.40
2024-05-09T22:13:08.963Z,2.10
2024-05-09T22:15:42.570Z,2.55
2024-05-09T22:18:10.824Z,2.33
2024-05-09T22:20:45.615Z,2.53
2024-05-09T22:23:13.641Z,2.20
2024-05-09T22:25:43.222Z,2.40
2024-05-09T22:28:12.815Z,2.20
2024-05-09T22:30:47.186Z,1.60
2024-05-09T22:33:15.371Z,1.88
2024-05-09T22:35:45.692Z,2.13
2024-05-09T22:38:12.487Z,2.05
2024-05-09T22:40:47.717Z,2.10
2024-05-09T22:43:17.422Z,2.28
2024-05-09T22:45:50.679Z,2.63
2024-05-09T22:48:17.998Z,1.98
2024-05-09T22:50:47.621Z,2.00
2024-05-09T22:53:14.538Z,2.30
2024-05-09T22:55:44.342Z,2.33
2024-05-09T22:58:11.381Z,2.40
2024-05-09T23:00:41.203Z,2.20
2024-05-09T23:03:10.984Z,2.10
2024-05-09T23:05:40.628Z,2.03
2024-05-09T23:08:08.843Z,2.25
2024-05-09T23:10:38.703Z,2.33
2024-05-09T23:13:07.592Z,2.60
2024-05-09T23:15:39.038Z,2.08
2024-05-09T23:18:06.856Z,1.90
2024-05-09T23:20:40.277Z,2.25
2024-05-09T23:23:07.764Z,1.98
2024-05-09T23:25:37.856Z,2.17
2024-05-09T23:28:05.450Z,1.90
2024-05-09T23:30:39.019Z,1.70
2024-05-09T23:33:08.505Z,1.95
2024-05-09T23:35:41.464Z,2.03
2024-05-09T23:38:08.394Z,2.08
2024-05-09T23:40:40.674Z,1.85
2024-05-09T23:43:09.302Z,2.08
2024-05-09T23:45:39.428Z,1.98
2024-05-09T23:48:07.073Z,2.20
2024-05-09T23:50:39.534Z,1.95
2024-05-09T23:53:10.989Z,2.22
2024-05-09T23:55:41.842Z,1.98
2024-05-09T23:58:09.307Z,2.10
